Terminal Aerodrome Forecast
Issued by NWS Pocatello, ID

Home | Current Version | Previous Version | Text Only | Print | Product List | Glossary On
Versions: 1 2 3 4 5 6 7 8 9 10 11 12 13 14 15 16 17 18 19 20 21 22 23 24 25 26 27 28 29 30 31
000
FTUS45 KPIH 200300 AAB
TAFIDA
TAF AMD
KIDA 200345Z 2004/2024 21015KT 4SM -SN BR BKN004 OVC015
     FM201300 21007KT 1SM BR OVC008
     FM201800 20007KT 2SM BR OVC015=

USA.gov is the U.S. government's official web portal to all federal, state and local government web resources and services.